createdAt,value
2022-10-05T00:00:56.253Z,1.97
2022-10-05T00:03:27.918Z,2.00
2022-10-05T00:05:55.503Z,1.50
2022-10-05T00:08:25.829Z,1.77
2022-10-05T00:10:53.703Z,1.60
2022-10-05T00:13:25.871Z,1.80
2022-10-05T00:16:12.252Z,2.00
2022-10-05T00:18:41.370Z,1.90
2022-10-05T00:21:35.188Z,1.93
2022-10-05T00:24:02.878Z,2.07
2022-10-05T00:26:34.230Z,1.80
2022-10-05T00:29:07.062Z,1.90
2022-10-05T00:31:37.122Z,1.87
2022-10-05T00:34:04.890Z,1.70
2022-10-05T00:36:32.582Z,1.60
2022-10-05T00:39:02.997Z,1.77
2022-10-05T00:41:59.434Z,1.70
2022-10-05T00:44:41.387Z,1.70
2022-10-05T00:47:11.637Z,2.70
2022-10-05T00:50:14.613Z,2.40
2022-10-05T00:53:09.436Z,2.63
2022-10-05T00:56:02.453Z,2.73
2022-10-05T00:58:54.283Z,3.07
2022-10-05T01:01:43.967Z,3.07
2022-10-05T01:04:54.249Z,2.53
2022-10-05T01:07:48.378Z,3.00
2022-10-05T01:10:40.287Z,2.80
2022-10-05T01:13:22.751Z,3.17
2022-10-05T01:16:04.415Z,3.40
2022-10-05T01:18:45.008Z,3.33
2022-10-05T01:21:21.465Z,3.10
2022-10-05T01:24:29.338Z,3.13
2022-10-05T01:27:24.213Z,3.17
2022-10-05T01:30:02.909Z,3.37
2022-10-05T01:32:45.331Z,3.90
2022-10-05T01:35:40.778Z,3.17
2022-10-05T01:38:35.639Z,3.33
2022-10-05T01:41:36.701Z,3.30
2022-10-05T01:45:09.350Z,3.47
2022-10-05T01:47:54.707Z,3.10
2022-10-05T01:50:50.098Z,3.10
2022-10-05T01:53:33.619Z,5.10
2022-10-05T01:56:13.264Z,6.10
2022-10-05T01:59:31.403Z,5.53
2022-10-05T02:02:21.543Z,4.50
2022-10-05T02:05:03.012Z,3.93
2022-10-05T02:07:45.941Z,3.33
2022-10-05T02:10:26.165Z,3.40
2022-10-05T02:13:05.051Z,3.20
2022-10-05T02:15:49.409Z,3.60
2022-10-05T02:18:24.132Z,3.23
2022-10-05T02:20:56.359Z,3.50
2022-10-05T02:23:33.013Z,3.30
2022-10-05T02:26:02.594Z,3.60
2022-10-05T02:29:00.369Z,3.30
2022-10-05T02:31:46.022Z,3.23
2022-10-05T02:34:41.592Z,3.47
2022-10-05T02:37:36.972Z,3.30
2022-10-05T02:40:19.620Z,3.57
2022-10-05T02:43:00.039Z,3.50
2022-10-05T02:45:47.231Z,3.83
2022-10-05T02:48:42.119Z,3.80
2022-10-05T02:51:29.210Z,3.70
2022-10-05T02:54:25.522Z,4.63
2022-10-05T02:57:09.796Z,5.03
2022-10-05T03:00:04.655Z,4.10
2022-10-05T03:03:07.223Z,4.60
2022-10-05T03:05:44.277Z,4.33
2022-10-05T03:08:25.641Z,3.80
2022-10-05T03:11:03.210Z,4.17
2022-10-05T03:13:57.377Z,4.03
2022-10-05T03:16:56.295Z,4.07
2022-10-05T03:19:44.957Z,3.80
2022-10-05T03:22:44.387Z,3.70
2022-10-05T03:25:26.991Z,4.10
2022-10-05T03:28:27.267Z,4.10
2022-10-05T03:31:09.902Z,3.70
2022-10-05T03:34:00.855Z,3.60
2022-10-05T03:37:10.326Z,4.27
2022-10-05T03:39:47.339Z,5.50
2022-10-05T03:42:37.698Z,4.87
2022-10-05T03:45:58.106Z,4.10
2022-10-05T03:48:47.834Z,3.50
2022-10-05T03:51:38.547Z,3.43
2022-10-05T03:54:29.302Z,3.10
2022-10-05T03:57:28.497Z,3.07
2022-10-05T04:00:16.577Z,2.93
2022-10-05T04:03:13.196Z,3.27
2022-10-05T04:05:54.313Z,3.07
2022-10-05T04:09:14.288Z,2.87
2022-10-05T04:12:25.535Z,2.63
2022-10-05T04:15:03.825Z,3.43
2022-10-05T04:17:45.247Z,3.30
2022-10-05T04:20:18.728Z,3.17
2022-10-05T04:23:25.407Z,3.30
2022-10-05T04:26:06.324Z,2.67
2022-10-05T04:29:00.844Z,2.60
2022-10-05T04:32:22.818Z,2.93
2022-10-05T04:35:27.134Z,2.17
2022-10-05T04:38:03.697Z,2.30
2022-10-05T04:41:02.937Z,2.90
2022-10-05T04:44:22.867Z,2.40
2022-10-05T04:47:03.499Z,2.47
2022-10-05T04:50:07.182Z,2.80
2022-10-05T04:52:59.119Z,2.20
2022-10-05T04:56:10.839Z,2.87
2022-10-05T04:58:45.957Z,2.60
2022-10-05T05:01:40.092Z,2.50
2022-10-05T05:04:45.408Z,2.40
2022-10-05T05:07:44.609Z,2.70
2022-10-05T05:11:16.228Z,2.73
2022-10-05T05:14:07.575Z,3.07
2022-10-05T05:16:44.418Z,2.60
2022-10-05T05:19:41.498Z,3.10
2022-10-05T05:22:50.470Z,2.93
2022-10-05T05:25:42.689Z,2.70
2022-10-05T05:28:34.771Z,2.43
2022-10-05T05:31:45.981Z,2.60
2022-10-05T05:34:58.026Z,2.80
2022-10-05T05:37:36.750Z,2.60
2022-10-05T05:40:17.629Z,2.67
2022-10-05T05:42:59.098Z,2.80
2022-10-05T05:45:43.748Z,2.77
2022-10-05T05:48:39.066Z,3.97
2022-10-05T05:51:15.443Z,2.20
2022-10-05T05:54:05.392Z,3.10
2022-10-05T05:56:41.627Z,3.60
2022-10-05T05:59:32.716Z,3.07
2022-10-05T06:02:12.191Z,3.97
2022-10-05T06:04:52.509Z,3.73
2022-10-05T06:07:30.357Z,3.07
2022-10-05T06:10:22.405Z,3.10
2022-10-05T06:13:09.309Z,3.97
2022-10-05T06:15:47.549Z,3.00
2022-10-05T06:18:20.705Z,2.97
2022-10-05T06:21:03.133Z,2.90
2022-10-05T06:23:54.919Z,3.13
2022-10-05T06:26:32.112Z,3.00
2022-10-05T06:29:08.879Z,2.70
2022-10-05T06:32:24.845Z,2.63
2022-10-05T06:35:12.500Z,2.77
2022-10-05T06:38:01.358Z,2.40
2022-10-05T06:40:55.593Z,2.90
2022-10-05T06:43:31.935Z,3.13
2022-10-05T06:46:31.369Z,3.10
2022-10-05T06:49:34.425Z,3.03
2022-10-05T06:53:11.116Z,3.50
2022-10-05T06:56:13.908Z,2.93
2022-10-05T06:59:06.415Z,3.20
2022-10-05T07:01:52.174Z,3.60
2022-10-05T07:04:59.781Z,4.03
2022-10-05T07:07:43.755Z,4.03
2022-10-05T07:10:20.814Z,3.30
2022-10-05T07:13:34.373Z,3.03
2022-10-05T07:21:18.165Z,2.93
2022-10-05T07:24:29.334Z,3.00
2022-10-05T07:27:18.223Z,3.20
2022-10-05T07:30:11.543Z,2.80
2022-10-05T07:33:21.082Z,3.07
2022-10-05T07:36:42.224Z,2.80
2022-10-05T07:39:59.024Z,3.07
2022-10-05T07:43:57.573Z,2.67
2022-10-05T07:47:13.387Z,2.93
2022-10-05T08:13:56.366Z,3.27
2022-10-05T08:16:31.239Z,2.80
2022-10-05T08:19:02.448Z,3.13
2022-10-05T08:22:06.628Z,2.10
2022-10-05T08:24:48.658Z,1.90
2022-10-05T08:27:33.999Z,2.10
2022-10-05T08:30:17.066Z,1.87
2022-10-05T08:33:18.711Z,1.80
2022-10-05T08:36:20.412Z,1.43
2022-10-05T08:39:17.334Z,1.70
2022-10-05T08:42:09.374Z,2.13
2022-10-05T08:45:14.059Z,1.53
2022-10-05T08:48:06.453Z,1.40
2022-10-05T08:51:00.553Z,1.60
2022-10-05T08:53:55.335Z,1.70
2022-10-05T08:57:13.876Z,1.70
2022-10-05T08:59:57.159Z,2.40
2022-10-05T09:02:47.387Z,2.27
2022-10-05T09:05:41.812Z,7.50
2022-10-05T09:08:51.386Z,1.37
2022-10-05T09:11:41.908Z,1.53
2022-10-05T09:14:25.365Z,1.57
2022-10-05T09:17:04.803Z,1.40
2022-10-05T09:19:47.564Z,1.30
2022-10-05T09:22:40.336Z,2.67
2022-10-05T09:25:39.054Z,1.50
2022-10-05T09:28:43.314Z,1.63
2022-10-05T09:31:44.976Z,1.57
2022-10-05T09:34:43.296Z,1.20
2022-10-05T09:38:10.844Z,1.20
2022-10-05T09:41:20.003Z,1.00
2022-10-05T09:44:12.107Z,1.27
2022-10-05T09:46:54.252Z,1.20
2022-10-05T09:49:39.617Z,1.10
2022-10-05T09:52:28.522Z,1.00
2022-10-05T09:55:46.147Z,1.37
2022-10-05T09:59:38.017Z,0.90
2022-10-05T10:02:27.773Z,0.90
2022-10-05T10:05:40.900Z,1.60
2022-10-05T10:08:35.457Z,0.90
2022-10-05T10:11:41.215Z,0.80
2022-10-05T10:15:09.466Z,0.90
2022-10-05T10:18:15.998Z,0.70
2022-10-05T10:20:45.971Z,0.70
2022-10-05T10:23:28.978Z,0.70
2022-10-05T10:26:36.302Z,0.80
2022-10-05T10:29:57.226Z,0.60
2022-10-05T10:32:52.403Z,0.95
2022-10-05T10:36:06.143Z,0.80
2022-10-05T10:38:58.543Z,0.70
2022-10-05T10:41:52.155Z,0.95
2022-10-05T10:44:40.986Z,0.90
2022-10-05T10:47:54.579Z,1.10
2022-10-05T10:50:50.766Z,0.90
2022-10-05T10:53:36.304Z,0.80
2022-10-05T10:56:36.088Z,0.70
2022-10-05T10:59:48.476Z,1.00
2022-10-05T11:02:39.935Z,0.80
2022-10-05T11:05:52.248Z,0.65
2022-10-05T11:08:58.835Z,0.90
2022-10-05T11:11:54.573Z,1.17
2022-10-05T11:14:46.398Z,0.70
2022-10-05T11:18:02.454Z,0.70
2022-10-05T11:21:09.970Z,0.90
2022-10-05T11:23:58.857Z,0.88
2022-10-05T11:26:41.247Z,0.80
2022-10-05T11:29:52.115Z,0.80
2022-10-05T11:33:11.299Z,1.08
2022-10-05T11:36:30.789Z,1.02
2022-10-05T11:39:22.514Z,1.30
2022-10-05T11:42:20.143Z,0.80
2022-10-05T11:45:08.707Z,0.70
2022-10-05T11:48:22.519Z,0.80
2022-10-05T11:51:28.862Z,0.70
2022-10-05T11:54:02.452Z,1.00
2022-10-05T11:56:36.717Z,0.90
2022-10-05T11:59:43.006Z,1.58
2022-10-05T12:02:28.178Z,0.88
2022-10-05T12:05:21.296Z,0.95
2022-10-05T12:08:03.653Z,0.80
2022-10-05T12:11:01.229Z,0.73
2022-10-05T12:13:55.418Z,0.85
2022-10-05T12:16:43.906Z,0.85
2022-10-05T12:19:59.944Z,0.70
2022-10-05T12:23:05.552Z,0.57
2022-10-05T12:26:14.885Z,0.70
2022-10-05T12:29:11.440Z,0.77
2022-10-05T12:32:12.870Z,0.80
2022-10-05T12:35:06.232Z,1.00
2022-10-05T12:38:02.877Z,0.90
2022-10-05T12:40:53.536Z,0.75
2022-10-05T12:44:07.060Z,0.80
2022-10-05T12:47:12.772Z,0.80
2022-10-05T12:49:58.824Z,0.82
2022-10-05T12:52:51.041Z,0.70
2022-10-05T12:55:54.036Z,0.75
2022-10-05T12:59:09.847Z,0.93
2022-10-05T13:02:08.255Z,0.85
2022-10-05T13:04:41.179Z,0.70
2022-10-05T13:07:40.453Z,0.90
2022-10-05T13:11:15.284Z,1.08
2022-10-05T13:14:23.242Z,0.90
2022-10-05T13:17:09.628Z,0.80
2022-10-05T13:19:45.060Z,0.80
2022-10-05T13:23:06.660Z,0.90
2022-10-05T13:26:12.584Z,0.70
2022-10-05T13:29:43.942Z,0.80
2022-10-05T13:33:35.093Z,0.80
2022-10-05T13:36:18.677Z,0.80
2022-10-05T13:39:37.668Z,0.98
2022-10-05T13:42:21.875Z,1.00
2022-10-05T13:45:02.867Z,1.35
2022-10-05T13:47:45.408Z,1.27
2022-10-05T13:51:02.382Z,0.80
2022-10-05T13:54:11.787Z,0.90
2022-10-05T13:56:55.257Z,0.68
2022-10-05T13:59:47.123Z,1.00
2022-10-05T14:02:40.516Z,3.63
2022-10-05T14:05:22.904Z,0.82
2022-10-05T14:07:54.036Z,1.05
2022-10-05T14:10:43.013Z,0.82
2022-10-05T14:13:43.105Z,1.33
2022-10-05T14:16:26.322Z,1.25
2022-10-05T14:19:20.157Z,0.77
2022-10-05T14:22:02.202Z,0.98
2022-10-05T14:24:49.181Z,0.60
2022-10-05T14:27:28.871Z,1.25
2022-10-05T14:30:17.521Z,0.85
2022-10-05T14:33:08.446Z,1.00
2022-10-05T14:35:52.211Z,0.82
2022-10-05T14:38:36.270Z,0.60
2022-10-05T14:41:27.962Z,0.60
2022-10-05T14:44:25.682Z,0.65
2022-10-05T14:47:02.840Z,1.30
2022-10-05T14:49:36.343Z,0.80
2022-10-05T14:52:32.651Z,0.82
2022-10-05T14:55:37.451Z,0.98
2022-10-05T14:58:56.451Z,1.35
2022-10-05T15:01:31.588Z,0.80
2022-10-05T15:04:43.048Z,0.95
2022-10-05T15:07:26.293Z,1.30
2022-10-05T15:10:23.976Z,1.88
2022-10-05T15:13:17.511Z,1.35
2022-10-05T15:16:37.866Z,1.23
2022-10-05T15:19:39.395Z,1.95
2022-10-05T15:22:34.067Z,2.15
2022-10-05T15:25:42.429Z,1.90
2022-10-05T15:28:38.403Z,7.18
2022-10-05T15:31:46.100Z,3.33
2022-10-05T15:35:04.348Z,6.90
2022-10-05T15:40:54.818Z,6.03
2022-10-05T15:43:27.165Z,4.70
2022-10-05T15:46:20.177Z,4.32
2022-10-05T15:49:26.736Z,11.20
2022-10-05T15:52:45.570Z,4.57
2022-10-05T15:55:36.297Z,5.07
2022-10-05T15:59:00.394Z,3.20
2022-10-05T16:01:34.924Z,2.92
2022-10-05T16:04:50.067Z,2.50
2022-10-05T16:07:50.141Z,2.65
2022-10-05T16:10:27.260Z,2.65
2022-10-05T16:13:05.101Z,2.58
2022-10-05T16:15:59.452Z,2.38
2022-10-05T16:18:51.199Z,1.92
2022-10-05T16:21:54.575Z,2.17
2022-10-05T16:25:20.291Z,1.67
2022-10-05T16:28:05.662Z,1.77
2022-10-05T16:31:19.466Z,1.83
2022-10-05T16:34:17.239Z,1.53
2022-10-05T16:36:54.007Z,1.03
2022-10-05T16:39:39.822Z,2.77
2022-10-05T16:42:13.286Z,1.43
2022-10-05T16:44:57.280Z,2.37
2022-10-05T16:48:10.577Z,2.67
2022-10-05T16:51:17.565Z,3.10
2022-10-05T16:54:19.033Z,2.80
2022-10-05T16:56:59.478Z,2.27
2022-10-05T17:00:16.681Z,1.43
2022-10-05T17:03:32.914Z,1.70
2022-10-05T17:06:41.776Z,1.80
2022-10-05T17:10:15.295Z,2.27
2022-10-05T17:13:44.018Z,1.43
2022-10-05T17:17:02.561Z,1.10
2022-10-05T17:20:07.666Z,1.30
2022-10-05T17:23:13.906Z,1.33
2022-10-05T17:25:56.732Z,1.30
2022-10-05T17:29:03.322Z,1.30
2022-10-05T17:31:33.014Z,1.70
2022-10-05T17:34:12.263Z,1.40
2022-10-05T17:36:57.342Z,5.27
2022-10-05T17:39:52.267Z,8.43
2022-10-05T17:42:36.384Z,11.00
2022-10-05T17:45:13.655Z,9.23
2022-10-05T17:48:07.909Z,9.27
2022-10-05T17:51:07.312Z,8.17
2022-10-05T17:54:07.027Z,7.47
2022-10-05T17:56:47.971Z,6.23
2022-10-05T17:59:52.299Z,6.30
2022-10-05T18:02:22.996Z,6.83
2022-10-05T18:05:04.711Z,5.90
2022-10-05T18:07:35.614Z,3.90
2022-10-05T18:10:17.093Z,2.70
2022-10-05T18:12:48.664Z,3.20
2022-10-05T18:15:48.972Z,2.33
2022-10-05T18:18:54.814Z,1.90
2022-10-05T18:21:32.296Z,1.93
2022-10-05T18:24:30.000Z,1.70
2022-10-05T18:27:32.805Z,2.13
2022-10-05T18:30:18.298Z,1.40
2022-10-05T18:33:50.729Z,1.00
2022-10-05T18:36:45.381Z,1.33
2022-10-05T18:40:01.794Z,1.43
2022-10-05T18:43:18.128Z,1.43
2022-10-05T18:49:49.577Z,1.50
2022-10-05T18:52:44.670Z,1.40
2022-10-05T18:55:19.857Z,1.30
2022-10-05T18:58:42.377Z,1.40
2022-10-05T19:01:49.741Z,1.43
2022-10-05T19:04:47.226Z,1.30
2022-10-05T19:07:44.380Z,1.50
2022-10-05T19:10:46.169Z,1.60
2022-10-05T19:13:38.016Z,1.60
2022-10-05T19:16:38.433Z,6.73
2022-10-05T19:19:12.360Z,4.37
2022-10-05T19:22:40.330Z,3.77
2022-10-05T19:25:31.709Z,3.30
2022-10-05T19:28:21.333Z,2.47
2022-10-05T19:31:38.019Z,1.90
2022-10-05T19:34:27.104Z,1.60
2022-10-05T19:37:10.001Z,2.40
2022-10-05T19:40:07.231Z,2.07
2022-10-05T19:43:06.260Z,2.67
2022-10-05T19:45:52.836Z,2.70
2022-10-05T19:48:28.516Z,3.10
2022-10-05T19:50:59.424Z,4.13
2022-10-05T19:53:36.336Z,3.57
2022-10-05T19:56:25.265Z,4.17
2022-10-05T19:58:57.400Z,3.80
2022-10-05T20:01:36.556Z,3.37
2022-10-05T20:04:06.084Z,3.20
2022-10-05T20:06:35.434Z,3.10
2022-10-05T20:09:21.015Z,2.17
2022-10-05T20:11:53.422Z,1.80
2022-10-05T20:14:30.974Z,1.70
2022-10-05T20:17:46.903Z,2.10
2022-10-05T20:20:39.343Z,1.67
2022-10-05T20:23:24.679Z,1.50
2022-10-05T20:26:12.035Z,1.80
2022-10-05T20:28:40.075Z,1.67
2022-10-05T20:31:08.645Z,1.67
2022-10-05T20:33:36.250Z,1.60
2022-10-05T20:36:04.211Z,1.70
2022-10-05T20:38:34.385Z,1.63
2022-10-05T20:41:03.724Z,1.30
2022-10-05T20:43:31.307Z,2.20
2022-10-05T20:45:58.761Z,2.10
2022-10-05T20:48:26.976Z,1.60
2022-10-05T20:50:54.901Z,1.80
2022-10-05T20:53:22.444Z,1.40
2022-10-05T20:55:50.048Z,1.87
2022-10-05T20:58:18.063Z,2.47
2022-10-05T21:01:20.943Z,2.77
2022-10-05T21:03:49.699Z,2.63
2022-10-05T21:06:18.366Z,3.07
2022-10-05T21:08:46.765Z,3.20
2022-10-05T21:11:15.016Z,2.70
2022-10-05T21:13:44.828Z,2.37
2022-10-05T21:16:14.264Z,2.73
2022-10-05T21:18:46.824Z,2.33
2022-10-05T21:21:18.163Z,2.40
2022-10-05T21:23:50.535Z,2.37
2022-10-05T21:26:17.978Z,2.40
2022-10-05T21:28:45.538Z,3.20
2022-10-05T21:31:15.165Z,2.93
2022-10-05T21:33:42.707Z,2.47
2022-10-05T21:36:10.405Z,2.53
2022-10-05T21:38:37.983Z,2.37
2022-10-05T21:41:05.712Z,2.70
2022-10-05T21:43:33.504Z,2.60
2022-10-05T21:46:01.665Z,2.60
2022-10-05T21:48:32.299Z,2.40
2022-10-05T21:51:00.946Z,2.10
2022-10-05T21:53:33.925Z,1.97
2022-10-05T21:56:06.072Z,2.20
2022-10-05T21:58:33.613Z,2.20
2022-10-05T22:01:01.238Z,1.63
2022-10-05T22:03:31.775Z,2.00
2022-10-05T22:05:59.321Z,1.83
2022-10-05T22:08:30.924Z,1.90
2022-10-05T22:11:00.824Z,2.60
2022-10-05T22:13:44.140Z,2.40
2022-10-05T22:16:12.217Z,2.47
2022-10-05T22:18:40.149Z,2.27
2022-10-05T22:21:12.123Z,2.47
2022-10-05T22:23:42.380Z,2.27
2022-10-05T22:26:14.081Z,2.00
2022-10-05T22:28:42.725Z,2.37
2022-10-05T22:31:12.531Z,2.37
2022-10-05T22:33:43.098Z,2.20
2022-10-05T22:36:10.797Z,2.73
2022-10-05T22:38:38.443Z,2.70
2022-10-05T22:41:11.407Z,3.60
2022-10-05T22:43:39.676Z,4.00
2022-10-05T22:46:14.301Z,3.70
2022-10-05T22:48:42.099Z,4.00
2022-10-05T22:51:10.343Z,4.50
2022-10-05T22:53:38.139Z,4.57
2022-10-05T22:56:11.138Z,4.17
2022-10-05T22:58:39.697Z,4.73
2022-10-05T23:01:11.190Z,3.50
2022-10-05T23:03:39.236Z,3.20
2022-10-05T23:06:10.903Z,2.60
2022-10-05T23:08:39.588Z,2.50
2022-10-05T23:11:17.075Z,2.57
2022-10-05T23:13:45.185Z,2.50
2022-10-05T23:16:19.151Z,1.80
2022-10-05T23:18:50.475Z,1.83
2022-10-05T23:21:19.906Z,1.80
2022-10-05T23:23:51.034Z,1.70
2022-10-05T23:26:22.295Z,1.90
2022-10-05T23:28:50.349Z,1.80
2022-10-05T23:31:22.760Z,2.03
2022-10-05T23:33:51.393Z,3.87
2022-10-05T23:36:22.481Z,9.67
2022-10-05T23:38:50.962Z,7.60
2022-10-05T23:41:22.198Z,8.40
2022-10-05T23:43:50.053Z,6.57
2022-10-05T23:46:18.169Z,5.30
2022-10-05T23:48:45.828Z,4.80
2022-10-05T23:51:15.849Z,3.87
2022-10-05T23:53:43.757Z,3.87
2022-10-05T23:56:11.493Z,2.20
2022-10-05T23:58:39.203Z,1.90
